sensor_id;sensor_type;location;lat;lon;timestamp;pressure;altitude;pressure_sealevel;temperature;humidity
78509;BME280;67802;50.846;7.958;2023-06-22T00:01:22;98105.88;;;23.20;54.22
78509;BME280;67802;50.846;7.958;2023-06-22T00:03:48;98093.59;;;23.19;54.09
78509;BME280;67802;50.846;7.958;2023-06-22T00:06:13;98091.78;;;23.20;54.11
78509;BME280;67802;50.846;7.958;2023-06-22T00:08:39;98088.31;;;23.19;54.22
78509;BME280;67802;50.846;7.958;2023-06-22T00:11:05;98096.25;;;23.19;53.91
78509;BME280;67802;50.846;7.958;2023-06-22T00:13:30;98090.94;;;23.19;54.08
78509;BME280;67802;50.846;7.958;2023-06-22T00:15:55;98095.28;;;23.20;53.90
78509;BME280;67802;50.846;7.958;2023-06-22T00:18:21;98084.78;;;23.19;54.26
78509;BME280;67802;50.846;7.958;2023-06-22T00:20:46;98087.59;;;23.17;54.35
78509;BME280;67802;50.846;7.958;2023-06-22T00:23:12;98081.44;;;23.17;54.44
78509;BME280;67802;50.846;7.958;2023-06-22T00:25:39;98080.06;;;23.12;54.73
78509;BME280;67802;50.846;7.958;2023-06-22T00:28:07;98073.94;;;23.12;54.79
78509;BME280;67802;50.846;7.958;2023-06-22T00:30:33;98078.53;;;23.10;55.12
78509;BME280;67802;50.846;7.958;2023-06-22T00:32:59;98080.34;;;23.09;55.04
78509;BME280;67802;50.846;7.958;2023-06-22T00:35:25;98083.13;;;23.08;54.99
78509;BME280;67802;50.846;7.958;2023-06-22T00:37:57;98088.44;;;23.08;55.24
78509;BME280;67802;50.846;7.958;2023-06-22T00:40:29;98082.28;;;23.07;55.28
78509;BME280;67802;50.846;7.958;2023-06-22T00:42:54;98086.75;;;23.07;55.04
78509;BME280;67802;50.846;7.958;2023-06-22T00:45:21;98082.28;;;23.07;54.86
78509;BME280;67802;50.846;7.958;2023-06-22T00:47:57;98087.47;;;23.09;54.98
78509;BME280;67802;50.846;7.958;2023-06-22T00:50:24;98078.66;;;23.08;54.59
78509;BME280;67802;50.846;7.958;2023-06-22T00:52:52;98088.44;;;23.08;54.41
78509;BME280;67802;50.846;7.958;2023-06-22T00:55:19;98094.56;;;23.08;54.35
78509;BME280;67802;50.846;7.958;2023-06-22T00:57:46;98103.34;;;23.09;54.24
78509;BME280;67802;50.846;7.958;2023-06-22T01:00:12;98101.69;;;23.08;54.37
78509;BME280;67802;50.846;7.958;2023-06-22T01:02:42;98109.63;;;23.08;54.28
78509;BME280;67802;50.846;7.958;2023-06-22T01:05:11;98106.97;;;23.08;54.06
78509;BME280;67802;50.846;7.958;2023-06-22T01:07:43;98109.63;;;23.08;54.24
78509;BME280;67802;50.846;7.958;2023-06-22T01:13:13;98114.06;;;23.07;54.00
78509;BME280;67802;50.846;7.958;2023-06-22T01:15:46;98113.25;;;23.07;54.13
78509;BME280;67802;50.846;7.958;2023-06-22T01:18:17;98107.09;;;23.06;54.11
78509;BME280;67802;50.846;7.958;2023-06-22T01:20:43;98100.97;;;23.06;54.04
78509;BME280;67802;50.846;7.958;2023-06-22T01:25:48;98098.34;;;23.06;53.88
78509;BME280;67802;50.846;7.958;2023-06-22T01:31:10;98089.53;;;23.05;53.85
78509;BME280;67802;50.846;7.958;2023-06-22T01:33:39;98097.63;;;23.04;53.94
78509;BME280;67802;50.846;7.958;2023-06-22T01:36:06;98095.00;;;23.04;54.06
78509;BME280;67802;50.846;7.958;2023-06-22T01:38:32;98098.50;;;23.04;53.95
78509;BME280;67802;50.846;7.958;2023-06-22T01:40:59;98086.22;;;23.03;53.80
78509;BME280;67802;50.846;7.958;2023-06-22T01:43:26;98085.38;;;23.03;53.90
78509;BME280;67802;50.846;7.958;2023-06-22T01:45:52;98073.94;;;23.02;54.13
78509;BME280;67802;50.846;7.958;2023-06-22T01:48:19;98076.59;;;23.02;54.05
78509;BME280;67802;50.846;7.958;2023-06-22T01:50:44;98081.03;;;23.02;54.17
78509;BME280;67802;50.846;7.958;2023-06-22T01:53:10;98083.69;;;23.02;54.05
78509;BME280;67802;50.846;7.958;2023-06-22T01:55:35;98092.63;;;23.01;54.07
78509;BME280;67802;50.846;7.958;2023-06-22T01:58:01;98104.06;;;23.01;54.17
78509;BME280;67802;50.846;7.958;2023-06-22T02:00:28;98099.03;;;22.98;54.14
78509;BME280;67802;50.846;7.958;2023-06-22T02:02:59;98107.09;;;22.96;54.88
78509;BME280;67802;50.846;7.958;2023-06-22T02:05:33;98110.72;;;22.95;55.16
78509;BME280;67802;50.846;7.958;2023-06-22T02:08:04;98099.44;;;22.93;55.37
78509;BME280;67802;50.846;7.958;2023-06-22T02:10:32;98102.94;;;22.94;55.11
78509;BME280;67802;50.846;7.958;2023-06-22T02:13:01;98090.50;;;22.94;54.78
78509;BME280;67802;50.846;7.958;2023-06-22T02:15:28;98087.88;;;22.94;54.16
78509;BME280;67802;50.846;7.958;2023-06-22T02:17:53;98091.50;;;22.93;54.51
78509;BME280;67802;50.846;7.958;2023-06-22T02:20:18;98078.25;;;22.93;54.34
78509;BME280;67802;50.846;7.958;2023-06-22T02:22:45;98079.22;;;22.92;54.76
78509;BME280;67802;50.846;7.958;2023-06-22T02:25:10;98075.88;;;22.90;55.38
78509;BME280;67802;50.846;7.958;2023-06-22T02:27:36;98081.16;;;22.90;55.29
78509;BME280;67802;50.846;7.958;2023-06-22T02:30:01;98074.06;;;22.91;55.45
78509;BME280;67802;50.846;7.958;2023-06-22T02:32:27;98081.16;;;22.90;55.27
78509;BME280;67802;50.846;7.958;2023-06-22T02:34:53;98093.44;;;22.91;55.31
78509;BME280;67802;50.846;7.958;2023-06-22T02:37:18;98088.13;;;22.91;55.14
78509;BME280;67802;50.846;7.958;2023-06-22T02:39:43;98082.84;;;22.91;54.80
78509;BME280;67802;50.846;7.958;2023-06-22T02:42:09;98082.03;;;22.91;55.14
78509;BME280;67802;50.846;7.958;2023-06-22T02:44:36;98090.78;;;22.91;55.14
78509;BME280;67802;50.846;7.958;2023-06-22T02:47:01;98081.16;;;22.90;55.28
78509;BME280;67802;50.846;7.958;2023-06-22T02:49:27;98097.06;;;22.90;55.43
78509;BME280;67802;50.846;7.958;2023-06-22T02:51:52;98082.16;;;22.89;55.28
78509;BME280;67802;50.846;7.958;2023-06-22T02:54:18;98087.31;;;22.91;55.21
78509;BME280;67802;50.846;7.958;2023-06-22T02:56:43;98092.75;;;22.89;54.98
78509;BME280;67802;50.846;7.958;2023-06-22T02:59:10;98098.19;;;22.88;55.61
78509;BME280;67802;50.846;7.958;2023-06-22T03:01:36;98105.44;;;22.86;55.70
78509;BME280;67802;50.846;7.958;2023-06-22T03:04:08;98100.13;;;22.86;55.43
78509;BME280;67802;50.846;7.958;2023-06-22T03:06:34;98095.66;;;22.86;55.58
78509;BME280;67802;50.846;7.958;2023-06-22T03:09:02;98078.09;;;22.85;56.04
78509;BME280;67802;50.846;7.958;2023-06-22T03:11:29;98078.09;;;22.85;56.08
78509;BME280;67802;50.846;7.958;2023-06-22T03:13:54;98069.44;;;22.83;56.11
78509;BME280;67802;50.846;7.958;2023-06-22T03:16:20;98090.63;;;22.83;55.96
78509;BME280;67802;50.846;7.958;2023-06-22T03:18:45;98097.63;;;22.84;55.71
78509;BME280;67802;50.846;7.958;2023-06-22T03:21:10;98102.91;;;22.84;56.21
78509;BME280;67802;50.846;7.958;2023-06-22T03:23:36;98084.53;;;22.82;56.28
78509;BME280;67802;50.846;7.958;2023-06-22T03:26:02;98089.81;;;22.82;56.61
78509;BME280;67802;50.846;7.958;2023-06-22T03:28:27;98075.88;;;22.80;56.71
78509;BME280;67802;50.846;7.958;2023-06-22T03:30:53;98082.16;;;22.79;56.72
78509;BME280;67802;50.846;7.958;2023-06-22T03:33:18;98096.22;;;22.80;56.36
78509;BME280;67802;50.846;7.958;2023-06-22T03:35:43;98082.97;;;22.80;56.35
78509;BME280;67802;50.846;7.958;2023-06-22T03:38:08;98079.50;;;22.79;55.94
78509;BME280;67802;50.846;7.958;2023-06-22T03:40:34;98078.66;;;22.79;56.00
78509;BME280;67802;50.846;7.958;2023-06-22T03:42:59;98085.63;;;22.80;55.77
78509;BME280;67802;50.846;7.958;2023-06-22T03:45:24;98093.72;;;22.78;55.82
78509;BME280;67802;50.846;7.958;2023-06-22T03:47:50;98088.41;;;22.78;55.78
78509;BME280;67802;50.846;7.958;2023-06-22T03:50:15;98077.00;;;22.78;56.03
78509;BME280;67802;50.846;7.958;2023-06-22T03:52:40;98074.34;;;22.78;56.21
78509;BME280;67802;50.846;7.958;2023-06-22T03:55:07;98066.41;;;22.78;56.00
78509;BME280;67802;50.846;7.958;2023-06-22T03:57:33;98055.81;;;22.78;55.62
78509;BME280;67802;50.846;7.958;2023-06-22T03:59:58;98055.81;;;22.78;55.52
78509;BME280;67802;50.846;7.958;2023-06-22T04:02:24;98057.59;;;22.77;55.78
78509;BME280;67802;50.846;7.958;2023-06-22T04:04:50;98057.59;;;22.77;55.62
78509;BME280;67802;50.846;7.958;2023-06-22T04:07:15;98046.19;;;22.77;55.55
78509;BME280;67802;50.846;7.958;2023-06-22T04:09:40;98053.16;;;22.78;55.64
78509;BME280;67802;50.846;7.958;2023-06-22T04:12:06;98049.66;;;22.77;55.41
78509;BME280;67802;50.846;7.958;2023-06-22T04:14:31;98053.16;;;22.78;55.55
78509;BME280;67802;50.846;7.958;2023-06-22T04:16:57;98054.97;;;22.77;55.60
78509;BME280;67802;50.846;7.958;2023-06-22T04:19:23;98059.44;;;22.77;55.71
78509;BME280;67802;50.846;7.958;2023-06-22T04:21:48;98052.47;;;22.76;55.86
78509;BME280;67802;50.846;7.958;2023-06-22T04:24:14;98053.44;;;22.75;55.87
78509;BME280;67802;50.846;7.958;2023-06-22T04:26:40;98061.38;;;22.75;55.96
78509;BME280;67802;50.846;7.958;2023-06-22T04:29:07;98054.41;;;22.74;55.70
78509;BME280;67802;50.846;7.958;2023-06-22T04:31:34;98055.25;;;22.74;55.95
78509;BME280;67802;50.846;7.958;2023-06-22T04:34:03;98055.25;;;22.74;55.75
78509;BME280;67802;50.846;7.958;2023-06-22T04:36:38;98055.25;;;22.74;55.74
78509;BME280;67802;50.846;7.958;2023-06-22T04:39:11;98051.78;;;22.74;55.81
78509;BME280;67802;50.846;7.958;2023-06-22T04:41:38;98049.25;;;22.72;56.11
78509;BME280;67802;50.846;7.958;2023-06-22T04:44:16;98054.69;;;22.71;56.16
78509;BME280;67802;50.846;7.958;2023-06-22T04:47:00;98047.72;;;22.70;56.37
78509;BME280;67802;50.846;7.958;2023-06-22T04:49:27;98046.03;;;22.68;56.71
78509;BME280;67802;50.846;7.958;2023-06-22T04:52:02;98042.44;;;22.70;56.98
78509;BME280;67802;50.846;7.958;2023-06-22T04:54:27;98044.22;;;22.69;56.70
78509;BME280;67802;50.846;7.958;2023-06-22T04:56:53;98036.28;;;22.69;56.84
78509;BME280;67802;50.846;7.958;2023-06-22T04:59:28;98046.03;;;22.68;56.76
78509;BME280;67802;50.846;7.958;2023-06-22T05:01:55;98043.41;;;22.68;56.79
78509;BME280;67802;50.846;7.958;2023-06-22T05:04:22;98034.47;;;22.70;56.79
78509;BME280;67802;50.846;7.958;2023-06-22T05:06:51;98036.00;;;22.72;56.37
78509;BME280;67802;50.846;7.958;2023-06-22T05:09:17;98036.84;;;22.73;56.14
78509;BME280;67802;50.846;7.958;2023-06-22T05:11:43;98039.34;;;22.74;56.01
78509;BME280;67802;50.846;7.958;2023-06-22T05:14:09;98039.34;;;22.74;56.04
78509;BME280;67802;50.846;7.958;2023-06-22T05:16:34;98032.97;;;22.77;56.24
78509;BME280;67802;50.846;7.958;2023-06-22T05:18:59;98028.31;;;22.79;56.24
78509;BME280;67802;50.846;7.958;2023-06-22T05:21:26;98025.69;;;22.89;55.74
78509;BME280;67802;50.846;7.958;2023-06-22T05:23:55;98022.63;;;22.93;55.47
78509;BME280;67802;50.846;7.958;2023-06-22T05:26:24;98018.44;;;23.01;55.46
78509;BME280;67802;50.846;7.958;2023-06-22T05:28:50;98013.28;;;23.09;55.58
78509;BME280;67802;50.846;7.958;2023-06-22T05:31:16;98012.84;;;23.13;55.09
78509;BME280;67802;50.846;7.958;2023-06-22T05:33:43;98009.91;;;23.17;54.93
78509;BME280;67802;50.846;7.958;2023-06-22T05:36:08;98008.09;;;23.17;55.17
78509;BME280;67802;50.846;7.958;2023-06-22T05:38:35;98005.44;;;23.17;54.97
78509;BME280;67802;50.846;7.958;2023-06-22T05:41:00;98007.81;;;23.20;54.99
78509;BME280;67802;50.846;7.958;2023-06-22T05:43:26;97999.34;;;23.26;55.14
78509;BME280;67802;50.846;7.958;2023-06-22T05:45:51;98000.72;;;23.31;55.03
78509;BME280;67802;50.846;7.958;2023-06-22T05:48:16;98005.00;;;23.32;55.13
78509;BME280;67802;50.846;7.958;2023-06-22T05:50:42;98011.31;;;23.31;55.27
78509;BME280;67802;50.846;7.958;2023-06-22T05:53:07;98007.81;;;23.30;55.27
78509;BME280;67802;50.846;7.958;2023-06-22T05:55:33;98008.69;;;23.31;55.27
78509;BME280;67802;50.846;7.958;2023-06-22T05:57:58;98010.31;;;23.32;54.99
78509;BME280;67802;50.846;7.958;2023-06-22T06:00:24;98015.34;;;23.35;55.31
78509;BME280;67802;50.846;7.958;2023-06-22T06:02:49;98011.41;;;23.39;54.88
78509;BME280;67802;50.846;7.958;2023-06-22T06:05:15;98010.31;;;23.41;54.74
78509;BME280;67802;50.846;7.958;2023-06-22T06:07:41;98012.81;;;23.43;54.81
78509;BME280;67802;50.846;7.958;2023-06-22T06:10:07;98007.50;;;23.43;54.72
78509;BME280;67802;50.846;7.958;2023-06-22T06:12:33;98017.28;;;23.42;54.62
78509;BME280;67802;50.846;7.958;2023-06-22T06:14:58;98017.28;;;23.42;54.75
78509;BME280;67802;50.846;7.958;2023-06-22T06:17:23;98017.13;;;23.44;55.08
78509;BME280;67802;50.846;7.958;2023-06-22T06:19:49;98017.81;;;23.46;54.66
78509;BME280;67802;50.846;7.958;2023-06-22T06:22:14;98011.41;;;23.49;54.59
78509;BME280;67802;50.846;7.958;2023-06-22T06:24:39;98017.25;;;23.52;54.49
78509;BME280;67802;50.846;7.958;2023-06-22T06:27:04;98015.16;;;23.56;54.59
78509;BME280;67802;50.846;7.958;2023-06-22T06:29:31;98014.03;;;23.59;54.52
78509;BME280;67802;50.846;7.958;2023-06-22T06:31:56;98019.84;;;23.62;54.65
78509;BME280;67802;50.846;7.958;2023-06-22T06:34:22;98028.22;;;23.67;54.28
78509;BME280;67802;50.846;7.958;2023-06-22T06:36:47;98019.97;;;23.70;54.35
78509;BME280;67802;50.846;7.958;2023-06-22T06:39:12;98020.53;;;23.74;54.48
78509;BME280;67802;50.846;7.958;2023-06-22T06:41:38;98020.25;;;23.77;54.25
78509;BME280;67802;50.846;7.958;2023-06-22T06:44:03;98014.66;;;23.80;54.57
78509;BME280;67802;50.846;7.958;2023-06-22T06:46:29;98014.38;;;23.83;54.38
78509;BME280;67802;50.846;7.958;2023-06-22T06:48:54;98018.53;;;23.86;54.67
78509;BME280;67802;50.846;7.958;2023-06-22T06:51:19;98016.41;;;23.90;54.56
78509;BME280;67802;50.846;7.958;2023-06-22T06:53:44;98016.28;;;23.91;54.38
78509;BME280;67802;50.846;7.958;2023-06-22T06:56:10;98018.75;;;23.93;54.13
78509;BME280;67802;50.846;7.958;2023-06-22T06:58:36;98023.25;;;23.92;54.29
78509;BME280;67802;50.846;7.958;2023-06-22T07:01:01;98021.56;;;23.91;54.57
78509;BME280;67802;50.846;7.958;2023-06-22T07:03:28;98023.66;;;23.88;54.07
78509;BME280;67802;50.846;7.958;2023-06-22T07:05:53;98017.66;;;23.85;54.35
78509;BME280;67802;50.846;7.958;2023-06-22T07:08:18;98018.00;;;23.82;54.49
78509;BME280;67802;50.846;7.958;2023-06-22T07:10:44;98024.28;;;23.81;54.26
78509;BME280;67802;50.846;7.958;2023-06-22T07:13:09;98004.34;;;23.77;54.44
78509;BME280;67802;50.846;7.958;2023-06-22T07:15:34;98002.66;;;23.76;54.71
78509;BME280;67802;50.846;7.958;2023-06-22T07:17:59;98003.66;;;23.75;54.53
78509;BME280;67802;50.846;7.958;2023-06-22T07:20:25;98001.97;;;23.74;55.01
78509;BME280;67802;50.846;7.958;2023-06-22T07:22:51;97999.31;;;23.74;54.85
78509;BME280;67802;50.846;7.958;2023-06-22T07:25:16;97985.06;;;23.75;54.50
78509;BME280;67802;50.846;7.958;2023-06-22T07:28:02;97983.13;;;23.77;54.97
78509;BME280;67802;50.846;7.958;2023-06-22T07:30:29;97970.53;;;23.79;55.24
78509;BME280;67802;50.846;7.958;2023-06-22T07:32:55;97976.25;;;23.84;55.66
78509;BME280;67802;50.846;7.958;2023-06-22T07:35:20;97985.56;;;23.89;55.85
78509;BME280;67802;50.846;7.958;2023-06-22T07:37:45;97995.03;;;23.91;56.23
78509;BME280;67802;50.846;7.958;2023-06-22T07:40:11;97985.25;;;23.92;56.22
78509;BME280;67802;50.846;7.958;2023-06-22T07:42:37;97994.06;;;23.92;56.32
78509;BME280;67802;50.846;7.958;2023-06-22T07:45:03;97986.09;;;23.92;56.38
78509;BME280;67802;50.846;7.958;2023-06-22T07:47:29;97982.47;;;23.93;55.85
78509;BME280;67802;50.846;7.958;2023-06-22T07:49:55;97982.31;;;23.95;55.71
78509;BME280;67802;50.846;7.958;2023-06-22T07:52:23;97973.53;;;23.94;56.62
78509;BME280;67802;50.846;7.958;2023-06-22T07:54:48;97964.72;;;23.94;56.86
78509;BME280;67802;50.846;7.958;2023-06-22T07:57:14;97965.69;;;23.93;56.89
78509;BME280;67802;50.846;7.958;2023-06-22T07:59:39;97967.38;;;23.94;56.88
78509;BME280;67802;50.846;7.958;2023-06-22T08:02:05;97965.69;;;23.93;56.36
78509;BME280;67802;50.846;7.958;2023-06-22T08:04:30;97961.38;;;23.92;56.53
78509;BME280;67802;50.846;7.958;2023-06-22T08:06:57;97949.09;;;23.91;56.48
78509;BME280;67802;50.846;7.958;2023-06-22T08:09:22;97949.78;;;23.93;56.21
78509;BME280;67802;50.846;7.958;2023-06-22T08:11:47;97940.84;;;23.94;56.60
78509;BME280;67802;50.846;7.958;2023-06-22T08:14:14;97943.50;;;23.94;56.57
78509;BME280;67802;50.846;7.958;2023-06-22T08:16:41;97944.19;;;23.96;56.57
78509;BME280;67802;50.846;7.958;2023-06-22T08:19:06;97951.16;;;23.97;57.16
78509;BME280;67802;50.846;7.958;2023-06-22T08:21:31;97951.16;;;23.97;57.08
78509;BME280;67802;50.846;7.958;2023-06-22T08:23:57;97949.50;;;23.96;57.40
78509;BME280;67802;50.846;7.958;2023-06-22T08:26:22;97956.47;;;23.97;57.22
78509;BME280;67802;50.846;7.958;2023-06-22T08:28:48;97949.34;;;23.97;56.99
78509;BME280;67802;50.846;7.958;2023-06-22T08:31:13;97947.25;;;24.01;57.36
78509;BME280;67802;50.846;7.958;2023-06-22T08:33:39;97940.97;;;24.02;57.21
78509;BME280;67802;50.846;7.958;2023-06-22T08:36:04;97935.53;;;24.04;57.09
78509;BME280;67802;50.846;7.958;2023-06-22T08:38:31;97930.75;;;24.07;56.83
78509;BME280;67802;50.846;7.958;2023-06-22T08:40:56;97921.50;;;24.11;56.43
78509;BME280;67802;50.846;7.958;2023-06-22T08:43:22;97919.22;;;24.17;55.91
78509;BME280;67802;50.846;7.958;2023-06-22T08:45:47;97918.75;;;24.21;56.02
78509;BME280;67802;50.846;7.958;2023-06-22T08:48:12;97928.94;;;24.26;55.64
78509;BME280;67802;50.846;7.958;2023-06-22T08:50:38;97926.00;;;24.29;55.29
78509;BME280;67802;50.846;7.958;2023-06-22T08:53:05;97915.38;;;24.29;54.92
78509;BME280;67802;50.846;7.958;2023-06-22T08:55:30;97913.53;;;24.29;55.24
78509;BME280;67802;50.846;7.958;2023-06-22T08:57:56;97907.41;;;24.29;55.10
78509;BME280;67802;50.846;7.958;2023-06-22T09:00:21;97902.91;;;24.29;55.37
78509;BME280;67802;50.846;7.958;2023-06-22T09:02:47;97902.91;;;24.29;55.27
78509;BME280;67802;50.846;7.958;2023-06-22T09:05:13;97902.09;;;24.29;55.16
78509;BME280;67802;50.846;7.958;2023-06-22T09:07:38;97896.13;;;24.27;55.13
78509;BME280;67802;50.846;7.958;2023-06-22T09:10:05;97890.81;;;24.27;55.17
78509;BME280;67802;50.846;7.958;2023-06-22T09:12:31;97891.78;;;24.26;55.20
78509;BME280;67802;50.846;7.958;2023-06-22T09:14:58;97885.63;;;24.25;54.55
78509;BME280;67802;50.846;7.958;2023-06-22T09:17:24;97894.56;;;24.24;54.57
78509;BME280;67802;50.846;7.958;2023-06-22T09:19:50;97893.75;;;24.24;54.71
78509;BME280;67802;50.846;7.958;2023-06-22T09:22:15;97884.13;;;24.23;54.96
78509;BME280;67802;50.846;7.958;2023-06-22T09:24:40;97883.13;;;24.24;54.94
78509;BME280;67802;50.846;7.958;2023-06-22T09:27:06;97877.84;;;24.24;55.05
78509;BME280;67802;50.846;7.958;2023-06-22T09:29:31;97871.66;;;24.23;54.92
78509;BME280;67802;50.846;7.958;2023-06-22T09:31:59;97870.84;;;24.23;54.91
78509;BME280;67802;50.846;7.958;2023-06-22T09:34:24;97869.19;;;24.22;55.00
78509;BME280;67802;50.846;7.958;2023-06-22T09:36:49;97862.88;;;24.23;54.77
78509;BME280;67802;50.846;7.958;2023-06-22T09:39:15;97846.97;;;24.23;54.70
78509;BME280;67802;50.846;7.958;2023-06-22T09:41:40;97848.78;;;24.22;54.73
78509;BME280;67802;50.846;7.958;2023-06-22T09:44:06;97840.00;;;24.22;54.60
78509;BME280;67802;50.846;7.958;2023-06-22T09:46:31;97845.31;;;24.22;54.93
78509;BME280;67802;50.846;7.958;2023-06-22T09:48:56;97837.34;;;24.22;54.61
78509;BME280;67802;50.846;7.958;2023-06-22T09:51:22;97825.72;;;24.23;54.77
78509;BME280;67802;50.846;7.958;2023-06-22T09:53:49;97816.09;;;24.22;54.71
78509;BME280;67802;50.846;7.958;2023-06-22T09:56:14;97804.50;;;24.23;54.61
78509;BME280;67802;50.846;7.958;2023-06-22T09:58:44;97803.66;;;24.22;54.58
78509;BME280;67802;50.846;7.958;2023-06-22T10:01:10;97796.53;;;24.23;54.44
78509;BME280;67802;50.846;7.958;2023-06-22T10:03:36;97791.38;;;24.21;54.47
78509;BME280;67802;50.846;7.958;2023-06-22T10:06:02;97796.53;;;24.23;54.53
78509;BME280;67802;50.846;7.958;2023-06-22T10:08:27;97786.91;;;24.22;54.39
78509;BME280;67802;50.846;7.958;2023-06-22T10:10:52;97794.88;;;24.22;54.29
78509;BME280;67802;50.846;7.958;2023-06-22T10:13:18;97794.88;;;24.22;54.29
78509;BME280;67802;50.846;7.958;2023-06-22T10:15:44;97788.56;;;24.23;54.12
78509;BME280;67802;50.846;7.958;2023-06-22T10:18:15;97775.31;;;24.23;54.07
78509;BME280;67802;50.846;7.958;2023-06-22T10:20:40;97779.75;;;24.22;54.25
78509;BME280;67802;50.846;7.958;2023-06-22T10:23:05;97776.13;;;24.23;54.15
78509;BME280;67802;50.846;7.958;2023-06-22T10:25:31;97782.28;;;24.24;54.20
78509;BME280;67802;50.846;7.958;2023-06-22T10:27:56;97779.63;;;24.24;54.02
78509;BME280;67802;50.846;7.958;2023-06-22T10:30:22;97780.44;;;24.24;53.76
78509;BME280;67802;50.846;7.958;2023-06-22T10:32:48;97775.13;;;24.24;54.06
78509;BME280;67802;50.846;7.958;2023-06-22T10:35:14;97769.69;;;24.26;54.21
78509;BME280;67802;50.846;7.958;2023-06-22T10:37:42;97768.03;;;24.25;54.03
78509;BME280;67802;50.846;7.958;2023-06-22T10:40:08;97769.69;;;24.26;54.10
78509;BME280;67802;50.846;7.958;2023-06-22T10:42:34;97770.50;;;24.26;54.13
78509;BME280;67802;50.846;7.958;2023-06-22T10:44:59;97765.19;;;24.26;53.98
78509;BME280;67802;50.846;7.958;2023-06-22T10:47:24;97760.75;;;24.27;53.96
78509;BME280;67802;50.846;7.958;2023-06-22T10:49:50;97752.91;;;24.25;54.27
78509;BME280;67802;50.846;7.958;2023-06-22T10:52:15;97760.75;;;24.27;53.91
78509;BME280;67802;50.846;7.958;2023-06-22T10:54:41;97751.94;;;24.26;53.80
78509;BME280;67802;50.846;7.958;2023-06-22T10:57:06;97757.22;;;24.26;53.94
78509;BME280;67802;50.846;7.958;2023-06-22T10:59:31;97768.84;;;24.25;53.95
78509;BME280;67802;50.846;7.958;2023-06-22T11:01:57;97796.22;;;24.26;53.98
78509;BME280;67802;50.846;7.958;2023-06-22T11:04:23;97826.41;;;24.25;53.85
78509;BME280;67802;50.846;7.958;2023-06-22T11:06:49;97861.91;;;24.24;53.74
78509;BME280;67802;50.846;7.958;2023-06-22T11:09:15;97874.19;;;24.25;53.65
78509;BME280;67802;50.846;7.958;2023-06-22T11:11:50;97880.47;;;24.24;54.06
78509;BME280;67802;50.846;7.958;2023-06-22T11:14:16;97881.31;;;24.24;54.03
78509;BME280;67802;50.846;7.958;2023-06-22T11:16:41;97858.56;;;24.22;53.80
78509;BME280;67802;50.846;7.958;2023-06-22T11:19:07;97843.47;;;24.22;53.87
78509;BME280;67802;50.846;7.958;2023-06-22T11:21:32;97826.72;;;24.22;53.79
78509;BME280;67802;50.846;7.958;2023-06-22T11:24:00;97816.91;;;24.22;53.80
78509;BME280;67802;50.846;7.958;2023-06-22T11:26:26;97817.91;;;24.21;53.93
78509;BME280;67802;50.846;7.958;2023-06-22T11:28:52;97792.34;;;24.20;54.39
78509;BME280;67802;50.846;7.958;2023-06-22T11:31:18;97786.06;;;24.21;54.25
78509;BME280;67802;50.846;7.958;2023-06-22T11:33:43;97798.50;;;24.21;54.53
78509;BME280;67802;50.846;7.958;2023-06-22T11:36:11;97793.19;;;24.21;54.44
78509;BME280;67802;50.846;7.958;2023-06-22T11:38:36;97787.72;;;24.22;54.23
78509;BME280;67802;50.846;7.958;2023-06-22T11:41:05;97763.03;;;24.22;54.66
78509;BME280;67802;50.846;7.958;2023-06-22T11:43:30;97770.00;;;24.23;54.68
78509;BME280;67802;50.846;7.958;2023-06-22T11:45:56;97772.66;;;24.23;54.85
78509;BME280;67802;50.846;7.958;2023-06-22T11:48:23;97766.50;;;24.22;54.65
78509;BME280;67802;50.846;7.958;2023-06-22T11:50:49;97763.84;;;24.22;54.79
78509;BME280;67802;50.846;7.958;2023-06-22T11:53:14;97757.72;;;24.22;54.46
78509;BME280;67802;50.846;7.958;2023-06-22T11:55:41;97746.25;;;24.21;54.56
78509;BME280;67802;50.846;7.958;2023-06-22T11:58:07;97754.06;;;24.23;54.49
78509;BME280;67802;50.846;7.958;2023-06-22T12:00:33;97750.44;;;24.24;54.84
78509;BME280;67802;50.846;7.958;2023-06-22T12:02:58;97757.53;;;24.23;54.65
78509;BME280;67802;50.846;7.958;2023-06-22T12:05:24;97754.88;;;24.23;54.68
78509;BME280;67802;50.846;7.958;2023-06-22T12:07:49;97760.06;;;24.25;54.20
78509;BME280;67802;50.846;7.958;2023-06-22T12:10:15;97785.63;;;24.26;53.83
78509;BME280;67802;50.846;7.958;2023-06-22T12:12:41;97805.88;;;24.27;53.86
78509;BME280;67802;50.846;7.958;2023-06-22T12:15:08;97811.84;;;24.29;53.85
78509;BME280;67802;50.846;7.958;2023-06-22T12:17:34;97809.88;;;24.31;53.78
78509;BME280;67802;50.846;7.958;2023-06-22T12:19:59;97780.69;;;24.31;54.01
78509;BME280;67802;50.846;7.958;2023-06-22T12:22:25;97754.81;;;24.33;53.76
78509;BME280;67802;50.846;7.958;2023-06-22T12:24:50;97728.25;;;24.33;54.10
78509;BME280;67802;50.846;7.958;2023-06-22T12:27:17;97713.00;;;24.35;53.96
78509;BME280;67802;50.846;7.958;2023-06-22T12:29:44;97697.75;;;24.37;53.82
78509;BME280;67802;50.846;7.958;2023-06-22T12:32:10;97701.91;;;24.40;53.77
78509;BME280;67802;50.846;7.958;2023-06-22T12:34:37;97700.75;;;24.42;53.68
78509;BME280;67802;50.846;7.958;2023-06-22T12:37:03;97696.13;;;24.44;53.55
78509;BME280;67802;50.846;7.958;2023-06-22T12:39:29;97694.81;;;24.49;53.70
78509;BME280;67802;50.846;7.958;2023-06-22T12:41:54;97683.19;;;24.50;53.59
78509;BME280;67802;50.846;7.958;2023-06-22T12:44:19;97675.09;;;24.51;53.31
78509;BME280;67802;50.846;7.958;2023-06-22T12:46:45;97674.09;;;24.52;53.38
78509;BME280;67802;50.846;7.958;2023-06-22T12:49:10;97676.59;;;24.54;53.73
78509;BME280;67802;50.846;7.958;2023-06-22T12:51:39;97675.59;;;24.55;53.77
78509;BME280;67802;50.846;7.958;2023-06-22T12:54:05;97664.97;;;24.55;53.84
78509;BME280;67802;50.846;7.958;2023-06-22T12:56:30;97661.31;;;24.56;53.89
78509;BME280;67802;50.846;7.958;2023-06-22T12:58:55;97660.34;;;24.57;53.55
78509;BME280;67802;50.846;7.958;2023-06-22T13:01:22;97655.03;;;24.57;53.38
78509;BME280;67802;50.846;7.958;2023-06-22T13:03:48;97645.25;;;24.57;53.41